• Join FlightAware (Why Join?)
  • Login
  • US Flag 
08:08PM EDT


 

Airport Tracker/Info


-or-


 

Live Flight TrackerFlight Track Log ✈ AAL117 ✈ 24-Jul-2013 ✈ KJFK - KLAX

Flight Track Log - Related Links

Times and Time Zones

All times are in EDT time to prevent confusion due to time zone crossing. See the AAL117 flight status page for this flight to view local times or setup timezone preferences in your user account.

Time Position Orientation Groundspeed Altitude Reporting Facility
EDT Latitude Longitude Course Direction KTS MPH feet Rate Location/Type
02:44PM 40.6500 -73.8333 237° Southwest 177 204 1,700  Level New York TRACON
02:45PM 40.6167 -73.9000 237° Southwest 238 274 3,400 2,460 Climbing New York TRACON
02:46PM 40.4291 -74.1085 237° Southwest  Level FlightAware Approximate
02:46PM 40.5500 -73.9500 210° Southwest 273 314 6,400  Level New York TRACON
02:47PM 40.3558 -74.2182 232° Southwest  Level FlightAware Approximate
02:47PM 40.4833 -74.0000 210° Southwest 279 321 9,700  Level New York TRACON
02:48PM 40.2868 -74.3332 232° Southwest  Level FlightAware Approximate
02:48PM 40.4167 -74.0500 210° Southwest 295 339 11,100  Level New York TRACON
02:49PM 40.2251 -74.4497 237° Southwest  Level FlightAware Approximate
02:50PM 40.3381 -74.2292 240° Southwest 355 409 14,200  Level New York Center
02:51PM 40.2739 -74.3564 237° Southwest 375 432 16,700 1,380 Climbing New York Center
02:52PM 40.2206 -74.4625 237° Southwest 387 445 17,000 1,020 Climbing New York Center
02:53PM 40.1950 -74.6050 257° West 373 429 18,800 1,800 Climbing New York Center
02:54PM 40.1819 -74.7483 263° West 386 444 20,600 1,800 Climbing New York Center
02:55PM 40.1728 -74.8972 265° West 403 464 22,500 1,860 Climbing New York Center
02:56PM 40.1611 -75.0458 264° West 403 464 24,400 1,920 Climbing New York Center
02:57PM 40.1472 -75.1997 263° West 416 479 26,300 1,680 Climbing New York Center
02:58PM 40.1356 -75.3375 264° West 429 494 27,900 1,380 Climbing New York Center
02:59PM 40.1231 -75.4942 264° West 435 501 29,100 1,440 Climbing New York Center
03:00PM 40.1106 -75.6508 264° West 435 501 30,800 1,560 Climbing New York Center
03:01PM 40.1103 -75.8083 270° West 440 506 32,300 1,440 Climbing New York Center
03:02PM 40.1117 -75.9658 271° West 440 506 33,800 780 Climbing New York Center
03:03PM 40.1089 -76.1231 269° West 440 506 33,900 540 Climbing New York Center
03:04PM 40.1072 -76.2911 269° West 440 506 34,900 1,020 Climbing New York Center
03:05PM 40.1067 -76.4378 270° West 428 493 36,000 540 Climbing New York Center
03:06PM 40.1056 -76.5897 270° West 422 486 36,000  Level New York Center
03:07PM 40.1083 -76.7392 271° West 422 486 36,000  Level New York Center
03:08PM 40.1050 -76.8856 268° West 417 480 36,000  Level New York Center
03:10PM 40.1056 -77.1708 270° West 420 483 36,000  Level Cleveland Center
03:11PM 40.1058 -77.3203 270° West 420 483 36,000  Level Cleveland Center
03:12PM 40.1039 -77.4697 269° West 420 483 36,000  Level Cleveland Center
03:13PM 40.1017 -77.6217 269° West 420 483 36,000  Level Cleveland Center
03:14PM 40.0992 -77.7711 269° West 420 483 36,000  Level Cleveland Center
03:15PM 40.0928 -77.9369 267° West 420 483 36,000  Level Cleveland Center
03:16PM 40.0900 -78.0892 269° West 420 483 36,000  Level Cleveland Center
03:17PM 40.0889 -78.2411 270° West 420 483 36,000  Level Cleveland Center
03:18PM 40.0836 -78.3906 267° West 420 483 36,000  Level Cleveland Center
03:19PM 40.0844 -78.5453 270° West 425 489 36,000  Level Cleveland Center
03:20PM 40.0786 -78.6972 267° West 425 489 36,000  Level Cleveland Center
03:21PM 40.0750 -78.8519 268° West 425 489 36,000  Level Cleveland Center
03:22PM 40.0728 -79.0042 269° West 425 489 36,000  Level Cleveland Center
03:23PM 40.0686 -79.1533 268° West 420 483 36,000  Level Cleveland Center
03:24PM 40.0664 -79.3053 269° West 420 483 36,000  Level Cleveland Center
03:25PM 40.0658 -79.4572 270° West 420 483 36,000  Level Cleveland Center
03:26PM 40.0608 -79.6092 268° West 420 483 36,000  Level Cleveland Center
03:27PM 40.0581 -79.7586 269° West 420 483 36,000  Level Cleveland Center
03:28PM 40.0528 -79.9078 267° West 420 483 36,000  Level Cleveland Center
03:29PM 40.0492 -80.0569 268° West 420 483 36,000  Level Cleveland Center
03:30PM 40.0436 -80.2061 267° West 420 483 36,000  Level Cleveland Center
03:31PM 40.0397 -80.3553 268° West 420 483 36,000  Level Cleveland Center
03:32PM 40.0339 -80.5044 267° West 420 483 36,000  Level Cleveland Center
03:33PM 40.0275 -80.6400 267° West 420 483 36,000  Level Cleveland Center
03:35PM 40.0153 -80.9972 268° West 420 483 36,000  Level Indianapolis Center
03:36PM 40.0144 -81.1528 270° West 424 488 36,000  Level Indianapolis Center
03:37PM 40.0119 -81.3061 269° West 421 484 36,000  Level Indianapolis Center
03:38PM 40.0078 -81.4625 268° West 425 489 36,000  Level Indianapolis Center
03:39PM 40.0061 -81.6183 269° West 426 490 36,000  Level Indianapolis Center
03:40PM 40.0022 -81.7869 268° West 426 490 36,000  Level Indianapolis Center
03:41PM 39.9972 -81.9436 268° West 428 493 36,000  Level Indianapolis Center
03:42PM 39.9919 -82.1003 268° West 430 495 36,000  Level Indianapolis Center
03:43PM 39.9881 -82.2589 268° West 433 498 36,000  Level Indianapolis Center
03:44PM 39.9836 -82.4444 268° West 435 501 36,000  Level Indianapolis Center
03:45PM 39.9792 -82.6042 268° West 437 503 36,000  Level Indianapolis Center
03:46PM 39.9739 -82.7633 268° West 437 503 36,000  Level Indianapolis Center
03:47PM 39.9686 -82.9219 268° West 435 501 36,000  Level Indianapolis Center
03:48PM 39.9644 -83.0792 268° West 431 496 36,000  Level Indianapolis Center
03:49PM 39.9617 -83.2367 269° West 432 497 36,000  Level Indianapolis Center
03:50PM 39.9564 -83.4164 268° West 428 493 36,000  Level Indianapolis Center
03:52PM 39.9508 -83.5683 267° West 428 493 36,000  Level Indianapolis Center
03:53PM 39.9458 -83.7200 268° West 423 487 36,000  Level Indianapolis Center
03:54PM 39.9400 -83.8706 267° West 416 479 36,000  Level Indianapolis Center
03:55PM 39.9342 -84.0225 267° West 416 479 36,000  Level Indianapolis Center
03:56PM 39.9267 -84.1978 267° West 413 475 36,000  Level Indianapolis Center
03:57PM 39.9206 -84.3497 267° West 417 480 36,000  Level Indianapolis Center
03:58PM 39.9131 -84.5025 266° West 420 483 36,000  Level Indianapolis Center
03:59PM 39.9053 -84.6539 266° West 417 480 36,000  Level Indianapolis Center
04:00PM 39.8989 -84.8067 267° West 421 484 36,000  Level Indianapolis Center
04:01PM 39.8906 -84.9747 266° West 418 481 36,000  Level Indianapolis Center
04:02PM 39.8831 -85.1261 266° West 420 483 36,000  Level Indianapolis Center
04:03PM 39.8761 -85.2778 267° West 422 486 36,000 300 Level Indianapolis Center
04:04PM 39.8681 -85.4292 266° West 420 483 36,700 480 Climbing Indianapolis Center
04:05PM 39.8544 -85.5789 263° West 420 483 37,000 120 Climbing Indianapolis Center
04:06PM 39.8219 -85.7550 257° West 419 482 37,000 300 Level Indianapolis Center
04:07PM 39.7969 -85.9008 257° West 416 479 37,700 480 Climbing Indianapolis Center
04:08PM 39.7719 -86.0486 258° West 419 482 38,000 120 Climbing Indianapolis Center
04:09PM 39.7431 -86.2144 257° West 423 487 38,000  Level Indianapolis Center
04:10PM 39.7100 -86.3564 253° West 416 479 38,000  Level Indianapolis Center
04:11PM 39.6658 -86.4897 247° West 416 479 38,000  Level Indianapolis Center
04:12PM 39.6233 -86.6264 248° West 410 472 38,000  Level Indianapolis Center
04:13PM 39.5800 -86.7631 248° West 412 474 38,000  Level Indianapolis Center
04:14PM 39.5372 -86.8989 248° West 410 472 38,000  Level Indianapolis Center
04:15PM 39.4864 -87.0639 248° West 412 474 38,000  Level Indianapolis Center
04:16PM 39.4431 -87.2011 248° West 413 475 38,000  Level Indianapolis Center
04:17PM 39.4003 -87.3400 248° West 417 480 38,000  Level Indianapolis Center
04:18PM 39.3583 -87.4783 249° West 416 479 38,000  Level Indianapolis Center
04:19PM 39.3169 -87.6172 249° West 416 479 38,000  Level Indianapolis Center
04:20PM 39.2828 -87.7706 254° West 418 481 38,000  Level Indianapolis Center
04:22PM 39.2628 -87.9164 260° West 414 476 38,000  Level Indianapolis Center
04:23PM 39.2364 -88.0922 259° West 416 479 38,000  Level Indianapolis Center
04:24PM 39.2142 -88.2408 259° West 415 478 38,000  Level Kansas City Center
04:25PM 39.1986 -88.3889 262° West 417 480 38,000  Level Kansas City Center
04:26PM 39.1867 -88.5361 264° West 414 476 38,000  Level Kansas City Center
04:27PM 39.1722 -88.6844 263° West 414 476 38,000  Level Kansas City Center
04:28PM 39.1572 -88.8625 264° West 416 479 38,000  Level Kansas City Center
04:29PM 39.1444 -89.0097 264° West 415 478 38,000  Level Kansas City Center
04:30PM 39.1289 -89.1661 263° West 411 473 38,000  Level Kansas City Center
04:31PM 39.1150 -89.3142 263° West 416 479 38,000  Level Kansas City Center
04:32PM 39.1014 -89.4711 264° West 413 475 38,000  Level Kansas City Center
04:33PM 39.0875 -89.6164 263° West 412 474 38,000  Level Kansas City Center
04:34PM 39.0733 -89.7733 263° West 412 474 38,000  Level Kansas City Center
04:35PM 39.0592 -89.9167 263° West 408 470 38,000  Level Kansas City Center
04:36PM 39.0444 -90.0542 262° West 406 467 38,000  Level Kansas City Center
04:37PM 39.0294 -90.1967 262° West 406 467 38,000  Level Kansas City Center
04:38PM 39.0122 -90.3403 261° West 409 471 38,000  Level Kansas City Center
04:39PM 38.9919 -90.5111 261° West 410 472 38,000  Level Kansas City Center
04:40PM 38.9761 -90.6544 262° West 410 472 38,000  Level Kansas City Center
04:41PM 38.9625 -90.7950 263° West 404 465 38,000  Level Kansas City Center
04:42PM 38.9475 -90.9375 262° West 406 467 38,000  Level Kansas City Center
04:43PM 38.9322 -91.0797 262° West 406 467 38,000  Level Kansas City Center
04:44PM 38.9142 -91.2517 262° West 406 467 38,000  Level Kansas City Center
04:45PM 38.8983 -91.3942 262° West 406 467 38,000  Level Kansas City Center
04:46PM 38.8825 -91.5367 262° West 406 467 38,000  Level Kansas City Center
04:47PM 38.8656 -91.6778 261° West 403 464 38,000  Level Kansas City Center
04:48PM 38.8486 -91.8333 262° West 403 464 38,000  Level Kansas City Center
04:49PM 38.8303 -91.9736 261° West 402 463 38,000  Level Kansas City Center
04:51PM 38.8144 -92.1167 262° West 404 465 38,000  Level Kansas City Center
04:52PM 38.7931 -92.2850 261° West 402 463 38,000  Level Kansas City Center
04:53PM 38.7747 -92.4258 261° West 402 463 38,000  Level Kansas City Center
04:54PM 38.7578 -92.5653 261° West 400 460 38,000  Level Kansas City Center
04:55PM 38.7394 -92.7056 261° West 399 459 38,000  Level Kansas City Center
04:56PM 38.7211 -92.8469 261° West 401 461 38,000  Level Kansas City Center
04:57PM 38.7022 -92.9875 260° West 402 463 38,000  Level Kansas City Center
04:58PM 38.6811 -93.1544 261° West 400 460 38,000  Level Kansas City Center
04:59PM 38.6622 -93.2953 260° West 401 461 38,000  Level Kansas City Center
05:00PM 38.6422 -93.4375 260° West 405 466 38,000  Level Kansas City Center
05:01PM 38.6228 -93.5800 260° West 407 468 38,000  Level Kansas City Center
05:02PM 38.6036 -93.7242 260° West 411 473 38,000  Level Kansas City Center
05:03PM 38.5814 -93.8883 260° West 411 473 38,000  Level Kansas City Center
05:04PM 38.5617 -94.0250 260° West 409 471 38,000  Level Kansas City Center
05:05PM 38.5383 -94.1847 259° West 409 471 38,000  Level Kansas City Center
05:06PM 38.5194 -94.3206 260° West 407 468 38,000  Level Kansas City Center
05:07PM 38.5000 -94.4569 260° West 407 468 38,000  Level Kansas City Center
05:08PM 38.4758 -94.6181 259° West 412 474 38,000  Level Kansas City Center
05:09PM 38.4561 -94.7542 260° West 409 471 38,000  Level Kansas City Center
05:10PM 38.4314 -94.9158 259° West 414 476 38,000  Level Kansas City Center
05:11PM 38.4122 -95.0525 260° West 410 472 38,000  Level Kansas City Center
05:12PM 38.3886 -95.2131 259° West 413 475 38,000  Level Kansas City Center
05:13PM 38.3686 -95.3500 259° West 410 472 38,000  Level Kansas City Center
05:14PM 38.3450 -95.5139 260° West 416 479 38,000  Level Kansas City Center
05:15PM 38.3242 -95.6500 259° West 411 473 38,000  Level Kansas City Center
05:16PM 38.3036 -95.7875 259° West 412 474 38,000  Level Kansas City Center
05:17PM 38.2792 -95.9481 259° West 413 475 38,000  Level Kansas City Center
05:18PM 38.2572 -96.0833 258° West 409 471 38,000  Level Kansas City Center
05:19PM 38.2322 -96.2428 259° West 411 473 38,000  Level Kansas City Center
05:21PM 38.2097 -96.3781 258° West 410 472 38,000  Level Kansas City Center
05:22PM 38.1858 -96.5278 259° West 410 472 38,000  Level Kansas City Center
05:23PM 38.1642 -96.6706 259° West 410 472 38,000  Level Kansas City Center
05:24PM 38.1419 -96.8114 259° West 408 470 38,000  Level Kansas City Center
05:25PM 38.1183 -96.9533 258° West 412 474 38,000  Level Kansas City Center
05:26PM 38.0908 -97.1242 258° West 412 474 38,000  Level Kansas City Center
05:27PM 38.0661 -97.2669 258° West 415 478 38,000  Level Kansas City Center
05:28PM 38.0419 -97.4106 258° West 417 480 38,000  Level Kansas City Center
05:29PM 38.0175 -97.5656 259° West 419 482 38,000  Level Kansas City Center
05:30PM 37.9992 -97.7111 261° West 420 483 38,000  Level Kansas City Center
05:31PM 37.9786 -97.8619 260° West 417 480 38,000  Level Kansas City Center
05:32PM 37.9578 -98.0053 260° West 418 481 38,000  Level Kansas City Center
05:33PM 37.9392 -98.1567 261° West 421 484 38,000  Level Kansas City Center
05:34PM 37.9192 -98.3011 260° West 420 483 38,000  Level Kansas City Center
05:35PM 37.8986 -98.4453 260° West 418 481 38,000  Level Kansas City Center
05:36PM 37.8725 -98.6192 259° West 419 482 38,000  Level Kansas City Center
05:37PM 37.8522 -98.7653 260° West 422 486 38,000  Level Kansas City Center
05:38PM 37.8322 -98.9075 260° West 414 476 38,000  Level Kansas City Center
05:39PM 37.8114 -99.0508 260° West 414 476 38,000  Level Kansas City Center
05:40PM 37.7911 -99.1942 260° West 415 478 38,000  Level Kansas City Center
05:41PM 37.7700 -99.3369 259° West 414 476 38,000  Level Kansas City Center
05:42PM 37.7442 -99.5133 260° West 413 475 38,000  Level Kansas City Center
05:43PM 37.7244 -99.6492 260° West 412 474 38,000  Level Kansas City Center
05:44PM 37.7036 -99.7861 259° West 414 476 38,000  Level Kansas City Center
05:45PM 37.6786 -99.9464 259° West 415 478 38,000  Level Kansas City Center
05:46PM 37.6578 -100.0822 259° West 413 475 38,000  Level Kansas City Center
05:47PM 37.6344 -100.2406 260° West 411 473 38,000  Level Kansas City Center
05:48PM 37.6125 -100.3778 259° West 415 478 38,000  Level Kansas City Center
05:49PM 37.5900 -100.5372 260° West 417 480 38,000  Level Kansas City Center
05:50PM 37.5686 -100.6808 259° West 416 479 38,000  Level Kansas City Center
05:52PM 37.5453 -100.8253 259° West 420 483 38,000  Level Kansas City Center
05:53PM 37.5214 -100.9722 258° West 427 491 38,000  Level Kansas City Center
05:54PM 37.5000 -101.1164 259° West 422 486 38,000  Level Kansas City Center
05:55PM 37.4739 -101.2844 259° West 417 480 38,000  Level Kansas City Center
05:56PM 37.4514 -101.4228 258° West 420 483 38,000  Level Kansas City Center
05:57PM 37.4247 -101.5833 258° West 420 483 38,000  Level Kansas City Center
05:58PM 37.4017 -101.7222 258° West 422 486 38,000  Level Kansas City Center
05:59PM 37.3742 -101.8839 258° West 422 486 38,000  Level Kansas City Center
06:00PM 37.3497 -102.0236 258° West 427 491 38,000  Level Kansas City Center
06:01PM 37.3231 -102.1842 258° West 421 484 38,000  Level Kansas City Center
06:02PM 37.2989 -102.3228 258° West 424 488 38,000  Level Kansas City Center
06:03PM 37.2811 -102.4303 258° West 427 491 38,000 420 Level Albuquerque Center
06:04PM 37.2575 -102.5689 258° West 424 488 38,800 900 Climbing Albuquerque Center
06:05PM 37.2267 -102.7272 256° West 419 482 39,900 540 Climbing Albuquerque Center
06:06PM 37.2022 -102.8631 257° West 417 480 40,000  Climbing Albuquerque Center
06:07PM 37.1725 -103.0219 257° West 418 481 40,000  Level Albuquerque Center
06:08PM 37.1475 -103.1575 257° West 417 480 40,000  Level Albuquerque Center
06:09PM 37.1192 -103.3147 257° West 414 476 40,000  Level Albuquerque Center
06:11PM 37.0778 -103.5372 257° West 412 474 40,000  Level Denver Center
06:12PM 37.0450 -103.7192 257° West 415 478 40,000  Level Albuquerque Center
06:13PM 37.0197 -103.8550 257° West 416 479 40,000  Level Albuquerque Center
06:14PM 36.9944 -103.9919 257° West 419 482 40,000  Level Albuquerque Center
06:15PM 36.9644 -104.1517 257° West 420 483 40,000  Level Albuquerque Center
06:16PM 36.9386 -104.2892 257° West 421 484 40,000  Level Albuquerque Center
06:17PM 36.9086 -104.4489 257° West 421 484 40,000  Level Albuquerque Center
06:18PM 36.8828 -104.5867 257° West 424 488 40,000  Level Albuquerque Center
06:19PM 36.8567 -104.7231 257° West 422 486 40,000  Level Albuquerque Center
06:20PM 36.8253 -104.8836 256° West 426 490 40,000  Level Albuquerque Center
06:21PM 36.7986 -105.0214 256° West 425 489 40,000  Level Albuquerque Center
06:22PM 36.7664 -105.1803 256° West 423 487 40,000  Level Albuquerque Center
06:23PM 36.7400 -105.3186 257° West 427 491 40,000  Level Albuquerque Center
06:24PM 36.7067 -105.4781 255° West 427 491 40,000  Level Albuquerque Center
06:25PM 36.6786 -105.6061 255° West 429 494 40,000  Level Albuquerque Center
06:26PM 36.6492 -105.7489 256° West 428 493 40,000  Level Albuquerque Center
06:27PM 36.6181 -105.9022 256° West 434 499 40,000  Level Albuquerque Center
06:28PM 36.5856 -106.0611 256° West 428 493 40,000  Level Albuquerque Center
06:29PM 36.5561 -106.1989 255° West 429 494 40,000  Level Albuquerque Center
06:30PM 36.5231 -106.3564 255° West 423 487 40,000  Level Albuquerque Center
06:31PM 36.4953 -106.4944 256° West 428 493 40,000  Level Albuquerque Center
06:32PM 36.4603 -106.6539 255° West 428 493 40,000  Level Albuquerque Center
06:33PM 36.4317 -106.7894 255° West 426 490 40,000  Level Albuquerque Center
06:34PM 36.4028 -106.9269 255° West 429 494 40,000  Level Albuquerque Center
06:35PM 36.3686 -107.0864 255° West 428 493 40,000  Level Albuquerque Center
06:36PM 36.3397 -107.2233 255° West 429 494 40,000  Level Albuquerque Center
06:37PM 36.3047 -107.3833 255° West 430 495 40,000  Level Albuquerque Center
06:38PM 36.2750 -107.5200 255° West 430 495 40,000  Level Albuquerque Center
06:40PM 36.2078 -107.8194 255° West 434 499 40,000  Level Albuquerque Center
06:41PM 36.1728 -107.9814 255° West 436 502 40,000  Level Albuquerque Center
06:43PM 36.1406 -108.1197 254° West 437 503 40,000  Level Albuquerque Center
06:44PM 36.1081 -108.2572 254° West 436 502 40,000  Level Albuquerque Center
06:45PM 36.0711 -108.4186 254° West 435 501 40,000  Level Albuquerque Center
06:46PM 36.0419 -108.5464 254° West 438 504 40,000  Level Albuquerque Center
06:47PM 36.0061 -108.6925 253° West 445 512 40,000  Level Albuquerque Center
06:48PM 35.9650 -108.8622 253° West 436 502 40,000  Level Albuquerque Center
06:49PM 35.9306 -109.0056 254° West 437 503 40,000  Level Albuquerque Center
06:50PM 35.8928 -109.1611 253° West 433 498 40,000  Level Albuquerque Center
06:51PM 35.8608 -109.2975 254° West 432 497 40,000  Level Albuquerque Center
06:52PM 35.8283 -109.4331 254° West 431 496 40,000  Level Albuquerque Center
06:53PM 35.7892 -109.5914 253° West 432 497 40,000  Level Albuquerque Center
06:54PM 35.7642 -109.7281 257° West 427 491 40,000  Level Albuquerque Center
06:55PM 35.7511 -109.8919 264° West 429 494 40,000  Level Albuquerque Center
06:56PM 35.7442 -110.0325 267° West 429 494 40,000  Level Albuquerque Center
06:57PM 35.7147 -110.1697 255° West 435 501 40,000  Level Albuquerque Center
06:58PM 35.6717 -110.3250 251° West 431 496 40,000  Level Albuquerque Center
06:59PM 35.6311 -110.4825 252° West 433 498 40,000  Level Albuquerque Center
07:00PM 35.5886 -110.6392 252° West 434 499 40,000  Level Albuquerque Center
07:01PM 35.5503 -110.7753 251° West 437 503 40,000  Level Albuquerque Center
07:02PM 35.5072 -110.9339 252° West 439 505 40,000  Level Albuquerque Center
07:03PM 35.4700 -111.0711 252° West 441 507 40,000  Level Albuquerque Center
07:04PM 35.4275 -111.2311 252° West 442 509 40,000  Level Albuquerque Center
07:05PM 35.3906 -111.3697 252° West 445 512 40,000  Level Albuquerque Center
07:06PM 35.3536 -111.5189 253° West 450 518 40,000  Level Albuquerque Center
07:07PM 35.3000 -111.6514 244° Southwest 444 511 40,000  Level Albuquerque Center
07:08PM 35.2369 -111.7789 239° Southwest 441 507 40,000  Level Albuquerque Center
07:09PM 35.1742 -111.9064 239° Southwest 441 507 40,000  Level Albuquerque Center
07:10PM 35.1103 -112.0344 239° Southwest 442 509 40,000  Level Albuquerque Center
07:11PM 35.0333 -112.1894 239° Southwest 445 512 40,000  Level Albuquerque Center
07:13PM 34.9692 -112.3181 239° Southwest 445 512 40,000  Level Albuquerque Center
07:14PM 34.9044 -112.4464 238° Southwest 445 512 40,000  Level Albuquerque Center
07:15PM 34.8417 -112.5758 239° Southwest 444 511 40,000  Level Albuquerque Center
07:16PM 34.7786 -112.7061 240° Southwest 446 513 40,000  Level Albuquerque Center
07:17PM 34.7150 -112.8369 239° Southwest 449 517 40,000  Level Albuquerque Center
07:18PM 34.6603 -112.9731 244° Southwest 448 516 40,000  Level Albuquerque Center
07:19PM 34.6106 -113.1114 246° West 448 516 40,000  Level Albuquerque Center
07:20PM 34.5633 -113.2817 251° West 445 512 40,000  Level Albuquerque Center
07:21PM 34.5383 -113.4267 258° West 441 507 40,000  Level Albuquerque Center
07:22PM 34.5133 -113.5725 258° West 443 510 40,000  Level Albuquerque Center
07:23PM 34.4842 -113.7342 258° West 440 506 40,000  Level Albuquerque Center
07:24PM 34.4594 -113.8789 258° West 438 504 40,000  Level Albuquerque Center
07:25PM 34.4347 -114.0222 258° West 436 502 40,000  Level Albuquerque Center
07:26PM 34.4103 -114.1644 258° West 432 497 40,000  Level Albuquerque Center
07:27PM 34.3869 -114.3072 259° West 432 497 40,000  Level Albuquerque Center
07:28PM 34.3614 -114.4489 258° West 431 496 40,000 -180 Level Albuquerque Center
07:29PM 34.3272 -114.6497 258° West 420 483 39,600 -540 Descending Los Angeles Center
07:30PM 34.3025 -114.7803 257° West 404 465 38,700 -1,200 Descending Los Angeles Center
07:31PM 34.2767 -114.9111 257° West 401 461 37,200 -1,440 Descending Los Angeles Center
07:32PM 34.2506 -115.0464 257° West 412 474 35,800 -1,380 Descending Los Angeles Center
07:33PM 34.2239 -115.1819 257° West 415 478 34,400 -1,020 Descending Los Angeles Center
07:34PM 34.1922 -115.3464 257° West 418 481 33,700 -1,020 Descending Los Angeles Center
07:36PM 34.1667 -115.4831 257° West 418 481 32,400 -1,440 Descending Los Angeles Center
07:37PM 34.1386 -115.6261 257° West 434 499 30,800 -1,380 Descending Los Angeles Center
07:38PM 34.1122 -115.7681 257° West 437 503 29,600 -1,140 Descending Los Angeles Center
07:39PM 34.0919 -115.9044 260° West 422 486 28,500 -1,500 Descending Los Angeles Center
07:40PM 34.0692 -116.0633 260° West 405 466 26,600 -1,920 Descending Los Angeles Center
07:41PM 34.0506 -116.1867 260° West 380 437 24,500 -1,260 Descending Los Angeles Center
07:42PM 34.0328 -116.3092 260° West 374 430 24,000 -720 Descending Los Angeles Center
07:43PM 34.0175 -116.4106 260° West 382 440 23,100 -1,380 Descending Los Angeles Center
07:44PM 34.0006 -116.5581 262° West 374 430 21,200 -1,620 Descending Los Angeles Center
07:45PM 33.9908 -116.6786 264° West 365 420 19,800 -1,500 Descending Los Angeles Center
07:46PM 33.9792 -116.8228 264° West 362 417 18,100 -1,260 Descending Los Angeles Center
07:47PM 33.9667 -116.9667 264° West 338 389 17,000 -540 Descending Southern California TRACON
07:48PM 33.9500 -117.0833 260° West 340 391 17,000 -300 Level Southern California TRACON
07:49PM 33.9500 -117.2000 270° West 339 390 16,500 -1,320 Descending Southern California TRACON
07:50PM 33.9333 -117.3000 259° West 330 380 14,400 -1,500 Descending Southern California TRACON
07:51PM 33.9500 -117.4167 280° West 316 364 13,600 -1,200 Descending Southern California TRACON
07:52PM 33.9833 -117.5000 296° West 302 348 12,100 -1,800 Descending Southern California TRACON
07:53PM 34.0167 -117.6000 292° West 315 362 10,000 -1,140 Descending Southern California TRACON
07:54PM 34.0000 -117.6833 256° West 243 280 9,900 -300 Descending Southern California TRACON
07:55PM 34.0000 -117.7667 270° West 239 275 9,400 -900 Descending Southern California TRACON
07:56PM 34.0000 -117.8333 270° West 201 231 8,100 -1,200 Descending Southern California TRACON
07:57PM 33.9833 -117.9000 253° West 200 230 7,000 -1,200 Descending Southern California TRACON
07:58PM 33.9833 -117.9667 270° West 182 209 5,700 -1,020 Descending Southern California TRACON
07:59PM 33.9667 -118.0167 248° West 172 198 5,000 -420 Descending Southern California TRACON
08:00PM 33.9667 -118.0833 270° West 170 196 4,900 -480 Descending Southern California TRACON
08:01PM 33.9667 -118.1333 270° West 166 191 4,100 -900 Descending Southern California TRACON
08:02PM 33.9500 -118.1833 248° West 176 203 3,200 -900 Descending Southern California TRACON